sensor_id;sensor_type;location;lat;lon;timestamp;pressure;altitude;pressure_sealevel;temperature;humidity
48204;BME280;33994;50.998;5.864;2024-03-06T00:00:46;101219.34;;;6.94;99.37
48204;BME280;33994;50.998;5.864;2024-03-06T00:03:51;101232.34;;;6.91;98.74
48204;BME280;33994;50.998;5.864;2024-03-06T00:06:54;101236.63;;;6.86;98.64
48204;BME280;33994;50.998;5.864;2024-03-06T00:09:57;101239.19;;;6.81;98.56
48204;BME280;33994;50.998;5.864;2024-03-06T00:13:00;101243.50;;;6.77;98.31
48204;BME280;33994;50.998;5.864;2024-03-06T00:16:04;101244.34;;;6.75;98.31
48204;BME280;33994;50.998;5.864;2024-03-06T00:19:09;101245.19;;;6.72;98.27
48204;BME280;33994;50.998;5.864;2024-03-06T00:22:12;101240.84;;;6.70;98.22
48204;BME280;33994;50.998;5.864;2024-03-06T00:25:15;101246.00;;;6.67;97.98
48204;BME280;33994;50.998;5.864;2024-03-06T00:28:18;101248.56;;;6.62;98.15
48204;BME280;33994;50.998;5.864;2024-03-06T00:31:22;101258.06;;;6.58;98.07
48204;BME280;33994;50.998;5.864;2024-03-06T00:34:26;101256.31;;;6.54;98.45
48204;BME280;33994;50.998;5.864;2024-03-06T00:37:29;101258.03;;;6.52;98.35
48204;BME280;33994;50.998;5.864;2024-03-06T00:40:33;101254.53;;;6.50;98.57
48204;BME280;33994;50.998;5.864;2024-03-06T00:43:36;101260.59;;;6.51;98.57
48204;BME280;33994;50.998;5.864;2024-03-06T00:46:39;101263.19;;;6.48;98.53
48204;BME280;33994;50.998;5.864;2024-03-06T00:49:43;101269.22;;;6.45;99.00
48204;BME280;33994;50.998;5.864;2024-03-06T00:52:47;101273.53;;;6.42;98.83
48204;BME280;33994;50.998;5.864;2024-03-06T00:55:50;101278.72;;;6.43;99.43
48204;BME280;33994;50.998;5.864;2024-03-06T00:58:53;101280.50;;;6.44;99.41
48204;BME280;33994;50.998;5.864;2024-03-06T01:01:56;101284.78;;;6.44;99.24
48204;BME280;33994;50.998;5.864;2024-03-06T01:05:02;101277.00;;;6.42;99.54
48204;BME280;33994;50.998;5.864;2024-03-06T01:08:06;101281.31;;;6.42;99.48
48204;BME280;33994;50.998;5.864;2024-03-06T01:11:09;101282.16;;;6.39;99.59
48204;BME280;33994;50.998;5.864;2024-03-06T01:14:12;101288.22;;;6.40;99.91
48204;BME280;33994;50.998;5.864;2024-03-06T01:17:15;101283.88;;;6.37;99.68
48204;BME280;33994;50.998;5.864;2024-03-06T01:20:19;101289.03;;;6.34;99.96
48204;BME280;33994;50.998;5.864;2024-03-06T01:23:22;101286.41;;;6.31;99.88
48204;BME280;33994;50.998;5.864;2024-03-06T01:26:26;101286.38;;;6.28;99.85
48204;BME280;33994;50.998;5.864;2024-03-06T01:29:29;101286.38;;;6.28;99.70
48204;BME280;33994;50.998;5.864;2024-03-06T01:32:33;101294.13;;;6.25;99.96
48204;BME280;33994;50.998;5.864;2024-03-06T01:35:37;101294.97;;;6.21;99.69
48204;BME280;33994;50.998;5.864;2024-03-06T01:38:40;101298.41;;;6.20;99.80
48204;BME280;33994;50.998;5.864;2024-03-06T01:41:47;101299.25;;;6.16;99.47
48204;BME280;33994;50.998;5.864;2024-03-06T01:44:50;101299.19;;;6.13;99.44
48204;BME280;33994;50.998;5.864;2024-03-06T01:47:53;101303.50;;;6.09;99.41
48204;BME280;33994;50.998;5.864;2024-03-06T01:50:59;101312.13;;;6.08;99.54
48204;BME280;33994;50.998;5.864;2024-03-06T01:54:04;101322.50;;;6.05;99.29
48204;BME280;33994;50.998;5.864;2024-03-06T01:57:08;101314.66;;;6.00;99.15
48204;BME280;33994;50.998;5.864;2024-03-06T02:00:13;101316.34;;;5.95;99.00
48204;BME280;33994;50.998;5.864;2024-03-06T02:03:16;101324.06;;;5.91;99.36
48204;BME280;33994;50.998;5.864;2024-03-06T02:06:22;101314.47;;;5.85;99.15
48204;BME280;33994;50.998;5.864;2024-03-06T02:09:25;101330.00;;;5.82;99.44
48204;BME280;33994;50.998;5.864;2024-03-06T02:12:28;101331.69;;;5.77;99.52
48204;BME280;33994;50.998;5.864;2024-03-06T02:15:31;101329.00;;;5.71;99.41
48204;BME280;33994;50.998;5.864;2024-03-06T02:18:34;101332.38;;;5.65;99.42
48204;BME280;33994;50.998;5.864;2024-03-06T02:21:39;101336.63;;;5.58;99.51
48204;BME280;33994;50.998;5.864;2024-03-06T02:24:43;101327.88;;;5.50;99.87
48204;BME280;33994;50.998;5.864;2024-03-06T02:27:47;101331.28;;;5.46;99.68
48204;BME280;33994;50.998;5.864;2024-03-06T02:30:50;101338.09;;;5.40;99.70
48204;BME280;33994;50.998;5.864;2024-03-06T02:33:53;101331.97;;;5.36;99.94
48204;BME280;33994;50.998;5.864;2024-03-06T02:36:58;101332.84;;;5.35;99.69
48204;BME280;33994;50.998;5.864;2024-03-06T02:40:01;101334.50;;;5.30;99.58
48204;BME280;33994;50.998;5.864;2024-03-06T02:43:04;101333.59;;;5.26;99.59
48204;BME280;33994;50.998;5.864;2024-03-06T02:46:07;101336.13;;;5.25;99.37
48204;BME280;33994;50.998;5.864;2024-03-06T02:49:11;101321.41;;;5.22;99.44
48204;BME280;33994;50.998;5.864;2024-03-06T02:52:15;101326.56;;;5.19;99.36
48204;BME280;33994;50.998;5.864;2024-03-06T02:55:18;101329.09;;;5.15;99.37
48204;BME280;33994;50.998;5.864;2024-03-06T02:58:22;101324.72;;;5.12;99.40
48204;BME280;33994;50.998;5.864;2024-03-06T03:01:25;101325.53;;;5.09;99.26
48204;BME280;33994;50.998;5.864;2024-03-06T03:04:28;101328.06;;;5.06;98.95
48204;BME280;33994;50.998;5.864;2024-03-06T03:07:32;101325.44;;;5.03;98.89
48204;BME280;33994;50.998;5.864;2024-03-06T03:10:36;101328.00;;;5.00;98.96
48204;BME280;33994;50.998;5.864;2024-03-06T03:13:39;101327.03;;;4.95;99.18
48204;BME280;33994;50.998;5.864;2024-03-06T03:16:42;101328.66;;;4.90;99.20
48204;BME280;33994;50.998;5.864;2024-03-06T03:19:45;101332.03;;;4.86;99.49
48204;BME280;33994;50.998;5.864;2024-03-06T03:22:50;101323.28;;;4.79;99.54
48204;BME280;33994;50.998;5.864;2024-03-06T03:25:53;101321.47;;;4.74;99.52
48204;BME280;33994;50.998;5.864;2024-03-06T03:28:56;101329.19;;;4.72;99.72
48204;BME280;33994;50.998;5.864;2024-03-06T03:31:59;101333.50;;;4.72;99.60
48204;BME280;33994;50.998;5.864;2024-03-06T03:35:03;101336.97;;;4.71;99.80
48204;BME280;33994;50.998;5.864;2024-03-06T03:38:07;101336.03;;;4.67;99.48
48204;BME280;33994;50.998;5.864;2024-03-06T03:41:11;101339.44;;;4.65;99.57
48204;BME280;33994;50.998;5.864;2024-03-06T03:44:15;101342.81;;;4.60;99.67
48204;BME280;33994;50.998;5.864;2024-03-06T03:47:18;101355.69;;;4.54;99.57
48204;BME280;33994;50.998;5.864;2024-03-06T03:50:21;101350.44;;;4.51;99.46
48204;BME280;33994;50.998;5.864;2024-03-06T03:53:26;101348.63;;;4.47;99.56
48204;BME280;33994;50.998;5.864;2024-03-06T03:56:29;101352.91;;;4.45;99.75
48204;BME280;33994;50.998;5.864;2024-03-06T03:59:32;101355.50;;;4.45;99.60
48204;BME280;33994;50.998;5.864;2024-03-06T04:02:35;101358.06;;;4.44;99.67
48204;BME280;33994;50.998;5.864;2024-03-06T04:05:38;101353.75;;;4.43;99.56
48204;BME280;33994;50.998;5.864;2024-03-06T04:08:43;101365.81;;;4.42;99.32
48204;BME280;33994;50.998;5.864;2024-03-06T04:11:46;101371.78;;;4.38;99.11
48204;BME280;33994;50.998;5.864;2024-03-06T04:14:49;101375.13;;;4.32;99.24
48204;BME280;33994;50.998;5.864;2024-03-06T04:17:53;101381.09;;;4.30;99.19
48204;BME280;33994;50.998;5.864;2024-03-06T04:20:56;101378.44;;;4.25;99.36
48204;BME280;33994;50.998;5.864;2024-03-06T04:24:01;101387.03;;;4.23;99.51
48204;BME280;33994;50.998;5.864;2024-03-06T04:27:04;101389.56;;;4.20;99.33
48204;BME280;33994;50.998;5.864;2024-03-06T04:30:08;101398.09;;;4.16;99.71
48204;BME280;33994;50.998;5.864;2024-03-06T04:33:11;101398.91;;;4.14;99.73
48204;BME280;33994;50.998;5.864;2024-03-06T04:36:15;101405.81;;;4.12;99.81
48204;BME280;33994;50.998;5.864;2024-03-06T04:39:19;101407.44;;;4.09;99.82
48204;BME280;33994;50.998;5.864;2024-03-06T04:42:22;101404.78;;;4.04;99.85
48204;BME280;33994;50.998;5.864;2024-03-06T04:45:25;101412.50;;;4.03;100.00
48204;BME280;33994;50.998;5.864;2024-03-06T04:48:28;101408.13;;;4.00;99.96
48204;BME280;33994;50.998;5.864;2024-03-06T04:51:31;101403.75;;;3.96;99.88
48204;BME280;33994;50.998;5.864;2024-03-06T04:54:36;101411.44;;;3.93;100.00
48204;BME280;33994;50.998;5.864;2024-03-06T04:57:39;101408.78;;;3.90;100.00
48204;BME280;33994;50.998;5.864;2024-03-06T05:00:43;101414.78;;;3.89;100.00
48204;BME280;33994;50.998;5.864;2024-03-06T05:03:46;101411.22;;;3.84;100.00
48204;BME280;33994;50.998;5.864;2024-03-06T05:06:49;101418.94;;;3.81;100.00
48204;BME280;33994;50.998;5.864;2024-03-06T05:09:54;101416.19;;;3.75;100.00
48204;BME280;33994;50.998;5.864;2024-03-06T05:12:57;101421.38;;;3.75;100.00
48204;BME280;33994;50.998;5.864;2024-03-06T05:16:00;101427.31;;;3.71;100.00
48204;BME280;33994;50.998;5.864;2024-03-06T05:19:04;101428.16;;;3.70;100.00
48204;BME280;33994;50.998;5.864;2024-03-06T05:22:07;101441.06;;;3.68;100.00
48204;BME280;33994;50.998;5.864;2024-03-06T05:25:11;101445.34;;;3.68;100.00
48204;BME280;33994;50.998;5.864;2024-03-06T05:28:15;101440.19;;;3.68;100.00
48204;BME280;33994;50.998;5.864;2024-03-06T05:31:19;101444.50;;;3.69;100.00
48204;BME280;33994;50.998;5.864;2024-03-06T05:34:22;101449.66;;;3.67;100.00
48204;BME280;33994;50.998;5.864;2024-03-06T05:37:26;101452.28;;;3.69;100.00
48204;BME280;33994;50.998;5.864;2024-03-06T05:40:30;101456.66;;;3.71;100.00
48204;BME280;33994;50.998;5.864;2024-03-06T05:43:33;101465.28;;;3.72;100.00
48204;BME280;33994;50.998;5.864;2024-03-06T05:46:36;101464.25;;;3.65;100.00
48204;BME280;33994;50.998;5.864;2024-03-06T05:49:40;101466.75;;;3.60;100.00
48204;BME280;33994;50.998;5.864;2024-03-06T05:52:43;101477.84;;;3.56;100.00
48204;BME280;33994;50.998;5.864;2024-03-06T05:55:47;101481.28;;;3.55;100.00
48204;BME280;33994;50.998;5.864;2024-03-06T05:58:50;101479.53;;;3.54;100.00
48204;BME280;33994;50.998;5.864;2024-03-06T06:01:54;101487.16;;;3.50;100.00
48204;BME280;33994;50.998;5.864;2024-03-06T06:04:57;101490.50;;;3.46;100.00
48204;BME280;33994;50.998;5.864;2024-03-06T06:08:00;101487.91;;;3.44;100.00
48204;BME280;33994;50.998;5.864;2024-03-06T06:11:05;101491.38;;;3.45;100.00
48204;BME280;33994;50.998;5.864;2024-03-06T06:14:08;101503.50;;;3.47;100.00
48204;BME280;33994;50.998;5.864;2024-03-06T06:17:11;101500.91;;;3.47;100.00
48204;BME280;33994;50.998;5.864;2024-03-06T06:20:14;101503.50;;;3.47;100.00
48204;BME280;33994;50.998;5.864;2024-03-06T06:23:17;101518.25;;;3.51;100.00
48204;BME280;33994;50.998;5.864;2024-03-06T06:26:22;101515.75;;;3.54;100.00
48204;BME280;33994;50.998;5.864;2024-03-06T06:29:25;101516.63;;;3.55;100.00
48204;BME280;33994;50.998;5.864;2024-03-06T06:32:28;101521.03;;;3.59;100.00
48204;BME280;33994;50.998;5.864;2024-03-06T06:35:32;101523.63;;;3.59;100.00
48204;BME280;33994;50.998;5.864;2024-03-06T06:38:35;101532.22;;;3.58;100.00
48204;BME280;33994;50.998;5.864;2024-03-06T06:41:39;101535.63;;;3.57;100.00
48204;BME280;33994;50.998;5.864;2024-03-06T06:44:42;101540.88;;;3.58;100.00
48204;BME280;33994;50.998;5.864;2024-03-06T06:47:47;101540.00;;;3.59;100.00
48204;BME280;33994;50.998;5.864;2024-03-06T06:50:50;101551.41;;;3.66;100.00
48204;BME280;33994;50.998;5.864;2024-03-06T06:53:53;101550.72;;;3.73;100.00
48204;BME280;33994;50.998;5.864;2024-03-06T06:56:58;101550.81;;;3.78;100.00
48204;BME280;33994;50.998;5.864;2024-03-06T07:00:01;101546.59;;;3.81;99.76
48204;BME280;33994;50.998;5.864;2024-03-06T07:03:04;101557.06;;;3.86;99.66
48204;BME280;33994;50.998;5.864;2024-03-06T07:06:08;101561.50;;;3.92;99.68
48204;BME280;33994;50.998;5.864;2024-03-06T07:09:11;101563.38;;;3.99;99.53
48204;BME280;33994;50.998;5.864;2024-03-06T07:12:16;101570.34;;;4.01;99.13
48204;BME280;33994;50.998;5.864;2024-03-06T07:15:19;101573.91;;;4.05;98.92
48204;BME280;33994;50.998;5.864;2024-03-06T07:18:22;101578.22;;;4.06;98.67
48204;BME280;33994;50.998;5.864;2024-03-06T07:21:25;101586.94;;;4.09;98.59
48204;BME280;33994;50.998;5.864;2024-03-06T07:24:28;101587.88;;;4.11;98.54
48204;BME280;33994;50.998;5.864;2024-03-06T07:27:32;101584.38;;;4.11;98.11
48204;BME280;33994;50.998;5.864;2024-03-06T07:30:35;101583.59;;;4.15;97.99
48204;BME280;33994;50.998;5.864;2024-03-06T07:33:39;101591.50;;;4.20;97.97
48204;BME280;33994;50.998;5.864;2024-03-06T07:36:42;101595.88;;;4.22;97.74
48204;BME280;33994;50.998;5.864;2024-03-06T07:39:45;101599.53;;;4.30;97.94
48204;BME280;33994;50.998;5.864;2024-03-06T07:42:49;101598.84;;;4.39;97.91
48204;BME280;33994;50.998;5.864;2024-03-06T07:45:52;101598.19;;;4.49;97.85
48204;BME280;33994;50.998;5.864;2024-03-06T07:48:56;101601.91;;;4.60;97.27
48204;BME280;33994;50.998;5.864;2024-03-06T07:51:59;101608.16;;;4.69;96.88
48204;BME280;33994;50.998;5.864;2024-03-06T07:55:02;101610.00;;;4.76;96.92
48204;BME280;33994;50.998;5.864;2024-03-06T07:58:06;101609.41;;;4.87;96.72
48204;BME280;33994;50.998;5.864;2024-03-06T08:01:10;101613.09;;;4.97;96.77
48204;BME280;33994;50.998;5.864;2024-03-06T08:04:13;101614.13;;;5.05;96.29
48204;BME280;33994;50.998;5.864;2024-03-06T08:07:16;101612.56;;;5.14;95.89
48204;BME280;33994;50.998;5.864;2024-03-06T08:10:19;101617.09;;;5.24;95.27
48204;BME280;33994;50.998;5.864;2024-03-06T08:13:24;101621.56;;;5.31;94.81
48204;BME280;33994;50.998;5.864;2024-03-06T08:16:27;101620.84;;;5.40;94.44
48204;BME280;33994;50.998;5.864;2024-03-06T08:19:30;101628.81;;;5.49;93.87
48204;BME280;33994;50.998;5.864;2024-03-06T08:22:33;101633.31;;;5.59;93.68
48204;BME280;33994;50.998;5.864;2024-03-06T08:25:36;101643.03;;;5.71;93.85
48204;BME280;33994;50.998;5.864;2024-03-06T08:28:40;101647.53;;;5.79;93.76
48204;BME280;33994;50.998;5.864;2024-03-06T08:31:44;101652.03;;;5.88;93.51
48204;BME280;33994;50.998;5.864;2024-03-06T08:34:47;101655.63;;;5.96;92.80
48204;BME280;33994;50.998;5.864;2024-03-06T08:37:50;101655.75;;;6.05;92.94
48204;BME280;33994;50.998;5.864;2024-03-06T08:40:53;101647.28;;;6.16;92.56
48204;BME280;33994;50.998;5.864;2024-03-06T08:43:58;101663.00;;;6.25;92.25
48204;BME280;33994;50.998;5.864;2024-03-06T08:47:01;101658.84;;;6.33;91.77
48204;BME280;33994;50.998;5.864;2024-03-06T08:50:05;101665.00;;;6.41;91.59
48204;BME280;33994;50.998;5.864;2024-03-06T08:53:09;101663.41;;;6.48;91.27
48204;BME280;33994;50.998;5.864;2024-03-06T08:56:12;101665.25;;;6.56;91.04
48204;BME280;33994;50.998;5.864;2024-03-06T08:59:16;101661.03;;;6.63;90.69
48204;BME280;33994;50.998;5.864;2024-03-06T09:02:20;101675.81;;;6.69;90.27
48204;BME280;33994;50.998;5.864;2024-03-06T09:05:23;101668.94;;;6.74;89.92
48204;BME280;33994;50.998;5.864;2024-03-06T09:08:26;101673.38;;;6.81;89.61
48204;BME280;33994;50.998;5.864;2024-03-06T09:11:30;101683.03;;;6.88;88.82
48204;BME280;33994;50.998;5.864;2024-03-06T09:14:34;101683.06;;;6.91;88.33
48204;BME280;33994;50.998;5.864;2024-03-06T09:17:37;101686.63;;;6.98;88.43
48204;BME280;33994;50.998;5.864;2024-03-06T09:20:40;101686.69;;;7.02;87.95
48204;BME280;33994;50.998;5.864;2024-03-06T09:23:44;101690.25;;;7.09;87.76
48204;BME280;33994;50.998;5.864;2024-03-06T09:26:47;101686.84;;;7.15;87.31
48204;BME280;33994;50.998;5.864;2024-03-06T09:29:52;101687.78;;;7.20;86.70
48204;BME280;33994;50.998;5.864;2024-03-06T09:32:55;101695.63;;;7.23;86.29
48204;BME280;33994;50.998;5.864;2024-03-06T09:35:58;101690.47;;;7.26;86.35
48204;BME280;33994;50.998;5.864;2024-03-06T09:39:01;101688.81;;;7.34;86.35
48204;BME280;33994;50.998;5.864;2024-03-06T09:42:07;101694.16;;;7.40;85.48
48204;BME280;33994;50.998;5.864;2024-03-06T09:45:11;101697.66;;;7.45;85.24
48204;BME280;33994;50.998;5.864;2024-03-06T09:48:14;101699.44;;;7.49;85.00
48204;BME280;33994;50.998;5.864;2024-03-06T09:51:19;101699.44;;;7.49;84.83
48204;BME280;33994;50.998;5.864;2024-03-06T09:54:23;101705.56;;;7.51;84.62
48204;BME280;33994;50.998;5.864;2024-03-06T09:57:26;101704.69;;;7.52;84.65
48204;BME280;33994;50.998;5.864;2024-03-06T10:00:31;101702.09;;;7.54;84.46
48204;BME280;33994;50.998;5.864;2024-03-06T10:03:34;101711.69;;;7.58;84.48
48204;BME280;33994;50.998;5.864;2024-03-06T10:06:37;101707.47;;;7.66;84.79
48204;BME280;33994;50.998;5.864;2024-03-06T10:09:40;101709.25;;;7.72;84.71
48204;BME280;33994;50.998;5.864;2024-03-06T10:12:45;101704.94;;;7.74;84.01
48204;BME280;33994;50.998;5.864;2024-03-06T10:15:57;101711.91;;;7.76;83.48
48204;BME280;33994;50.998;5.864;2024-03-06T10:19:15;101716.28;;;7.81;82.97
48204;BME280;33994;50.998;5.864;2024-03-06T10:22:18;101724.13;;;7.85;83.09
48204;BME280;33994;50.998;5.864;2024-03-06T10:25:22;101723.31;;;7.88;82.84
48204;BME280;33994;50.998;5.864;2024-03-06T10:28:25;101723.34;;;7.91;82.54
48204;BME280;33994;50.998;5.864;2024-03-06T10:31:30;101719.91;;;7.95;82.57
48204;BME280;33994;50.998;5.864;2024-03-06T10:34:33;101722.56;;;7.99;82.54
48204;BME280;33994;50.998;5.864;2024-03-06T10:37:37;101713.03;;;8.03;81.89
48204;BME280;33994;50.998;5.864;2024-03-06T10:40:42;101724.38;;;8.07;81.57
48204;BME280;33994;50.998;5.864;2024-03-06T10:43:47;101720.97;;;8.15;81.64
48204;BME280;33994;50.998;5.864;2024-03-06T10:46:58;101714.94;;;8.22;80.40
48204;BME280;33994;50.998;5.864;2024-03-06T10:50:02;101719.41;;;8.31;80.40
48204;BME280;33994;50.998;5.864;2024-03-06T10:53:08;101719.44;;;8.37;78.39
48204;BME280;33994;50.998;5.864;2024-03-06T10:56:12;101722.09;;;8.45;78.09
48204;BME280;33994;50.998;5.864;2024-03-06T10:59:16;101719.59;;;8.56;77.58
48204;BME280;33994;50.998;5.864;2024-03-06T11:02:21;101719.63;;;8.65;76.12
48204;BME280;33994;50.998;5.864;2024-03-06T11:05:26;101725.81;;;8.74;75.40
48204;BME280;33994;50.998;5.864;2024-03-06T11:08:29;101724.06;;;8.76;74.36
48204;BME280;33994;50.998;5.864;2024-03-06T11:11:32;101731.03;;;8.79;74.53
48204;BME280;33994;50.998;5.864;2024-03-06T11:14:36;101735.44;;;8.86;75.24
48204;BME280;33994;50.998;5.864;2024-03-06T11:17:41;101735.50;;;8.95;75.48
48204;BME280;33994;50.998;5.864;2024-03-06T11:20:44;101739.91;;;9.04;75.04
48204;BME280;33994;50.998;5.864;2024-03-06T11:24:13;101739.06;;;9.10;72.78
48204;BME280;33994;50.998;5.864;2024-03-06T11:27:16;101724.25;;;9.07;72.95
48204;BME280;33994;50.998;5.864;2024-03-06T11:30:19;101734.69;;;9.07;73.31
48204;BME280;33994;50.998;5.864;2024-03-06T11:33:27;101736.47;;;9.11;73.71
48204;BME280;33994;50.998;5.864;2024-03-06T11:36:30;101734.75;;;9.16;73.62
48204;BME280;33994;50.998;5.864;2024-03-06T11:39:34;101732.16;;;9.18;73.48
48204;BME280;33994;50.998;5.864;2024-03-06T11:42:37;101735.66;;;9.20;73.34
48204;BME280;33994;50.998;5.864;2024-03-06T11:45:43;101739.13;;;9.22;72.59
48204;BME280;33994;50.998;5.864;2024-03-06T11:48:55;101732.25;;;9.27;71.86
48204;BME280;33994;50.998;5.864;2024-03-06T11:52:00;101735.75;;;9.32;71.84
48204;BME280;33994;50.998;5.864;2024-03-06T11:55:05;101732.25;;;9.38;71.80
48204;BME280;33994;50.998;5.864;2024-03-06T11:58:09;101735.78;;;9.44;71.44
48204;BME280;33994;50.998;5.864;2024-03-06T12:01:12;101734.09;;;9.49;71.20
48204;BME280;33994;50.998;5.864;2024-03-06T12:04:18;101735.81;;;9.51;70.63
48204;BME280;33994;50.998;5.864;2024-03-06T12:07:21;101733.19;;;9.49;71.73
48204;BME280;33994;50.998;5.864;2024-03-06T12:10:25;101734.97;;;9.50;72.06
48204;BME280;33994;50.998;5.864;2024-03-06T12:13:28;101735.81;;;9.47;72.51
48204;BME280;33994;50.998;5.864;2024-03-06T12:16:31;101733.19;;;9.44;72.29
48204;BME280;33994;50.998;5.864;2024-03-06T12:19:36;101736.66;;;9.42;72.19
48204;BME280;33994;50.998;5.864;2024-03-06T12:22:43;101740.13;;;9.44;71.97
48204;BME280;33994;50.998;5.864;2024-03-06T12:25:46;101740.16;;;9.47;72.33
48204;BME280;33994;50.998;5.864;2024-03-06T12:28:50;101740.13;;;9.44;72.56
48204;BME280;33994;50.998;5.864;2024-03-06T12:31:53;101740.16;;;9.48;72.66
48204;BME280;33994;50.998;5.864;2024-03-06T12:34:58;101731.47;;;9.46;71.60
48204;BME280;33994;50.998;5.864;2024-03-06T12:38:11;101737.53;;;9.48;71.69
48204;BME280;33994;50.998;5.864;2024-03-06T12:41:14;101734.97;;;9.56;71.68
48204;BME280;33994;50.998;5.864;2024-03-06T12:44:19;101739.34;;;9.59;71.34
48204;BME280;33994;50.998;5.864;2024-03-06T12:47:23;101737.63;;;9.61;71.06
48204;BME280;33994;50.998;5.864;2024-03-06T12:50:27;101732.38;;;9.59;70.87
48204;BME280;33994;50.998;5.864;2024-03-06T12:53:31;101734.09;;;9.56;70.58
48204;BME280;33994;50.998;5.864;2024-03-06T12:56:34;101728.00;;;9.57;70.53
48204;BME280;33994;50.998;5.864;2024-03-06T12:59:37;101728.91;;;9.62;70.48
48204;BME280;33994;50.998;5.864;2024-03-06T13:02:40;101723.66;;;9.60;70.19
48204;BME280;33994;50.998;5.864;2024-03-06T13:05:45;101727.16;;;9.62;69.53
48204;BME280;33994;50.998;5.864;2024-03-06T13:08:48;101723.69;;;9.65;69.32
48204;BME280;33994;50.998;5.864;2024-03-06T13:11:51;101716.72;;;9.67;69.37
48204;BME280;33994;50.998;5.864;2024-03-06T13:14:54;101719.34;;;9.73;69.20
48204;BME280;33994;50.998;5.864;2024-03-06T13:17:57;101722.84;;;9.78;68.67
48204;BME280;33994;50.998;5.864;2024-03-06T13:21:02;101725.47;;;9.81;68.45
48204;BME280;33994;50.998;5.864;2024-03-06T13:24:05;101737.66;;;9.82;68.62
48204;BME280;33994;50.998;5.864;2024-03-06T13:27:08;101741.13;;;9.78;68.68
48204;BME280;33994;50.998;5.864;2024-03-06T13:30:12;101735.88;;;9.72;68.98
48204;BME280;33994;50.998;5.864;2024-03-06T13:33:15;101735.88;;;9.72;69.50
48204;BME280;33994;50.998;5.864;2024-03-06T13:36:20;101735.91;;;9.69;69.50
48204;BME280;33994;50.998;5.864;2024-03-06T13:39:23;101738.50;;;9.66;69.55
48204;BME280;33994;50.998;5.864;2024-03-06T13:42:26;101742.81;;;9.64;69.86
48204;BME280;33994;50.998;5.864;2024-03-06T13:45:30;101739.38;;;9.65;69.56
48204;BME280;33994;50.998;5.864;2024-03-06T13:48:33;101741.97;;;9.65;69.70
48204;BME280;33994;50.998;5.864;2024-03-06T13:51:38;101742.81;;;9.64;69.65
48204;BME280;33994;50.998;5.864;2024-03-06T13:54:42;101747.19;;;9.62;69.40
48204;BME280;33994;50.998;5.864;2024-03-06T13:57:46;101745.44;;;9.61;69.18
48204;BME280;33994;50.998;5.864;2024-03-06T14:00:49;101742.84;;;9.61;68.67
48204;BME280;33994;50.998;5.864;2024-03-06T14:03:52;101745.44;;;9.61;68.77
48204;BME280;33994;50.998;5.864;2024-03-06T14:06:57;101741.09;;;9.63;68.33
48204;BME280;33994;50.998;5.864;2024-03-06T14:10:00;101751.53;;;9.63;67.49
48204;BME280;33994;50.998;5.864;2024-03-06T14:13:03;101743.69;;;9.63;67.53
48204;BME280;33994;50.998;5.864;2024-03-06T14:16:06;101751.53;;;9.63;67.12
48204;BME280;33994;50.998;5.864;2024-03-06T14:19:09;101749.81;;;9.65;67.21
48204;BME280;33994;50.998;5.864;2024-03-06T14:22:14;101755.91;;;9.67;66.76
48204;BME280;33994;50.998;5.864;2024-03-06T14:25:17;101749.78;;;9.63;66.41
48204;BME280;33994;50.998;5.864;2024-03-06T14:28:20;101751.53;;;9.63;66.41
48204;BME280;33994;50.998;5.864;2024-03-06T14:31:23;101757.63;;;9.59;65.75
48204;BME280;33994;50.998;5.864;2024-03-06T14:34:26;101757.59;;;9.56;65.39
48204;BME280;33994;50.998;5.864;2024-03-06T14:37:30;101756.72;;;9.57;65.12
48204;BME280;33994;50.998;5.864;2024-03-06T14:40:33;101761.94;;;9.57;64.81
48204;BME280;33994;50.998;5.864;2024-03-06T14:43:36;101760.22;;;9.56;64.88
48204;BME280;33994;50.998;5.864;2024-03-06T14:46:40;101755.88;;;9.58;64.77
48204;BME280;33994;50.998;5.864;2024-03-06T14:49:44;101751.50;;;9.60;64.71
48204;BME280;33994;50.998;5.864;2024-03-06T14:52:49;101756.75;;;9.63;64.24
48204;BME280;33994;50.998;5.864;2024-03-06T14:55:52;101755.91;;;9.65;63.74
48204;BME280;33994;50.998;5.864;2024-03-06T14:58:55;101758.50;;;9.67;63.38
48204;BME280;33994;50.998;5.864;2024-03-06T15:01:58;101748.94;;;9.67;63.29
48204;BME280;33994;50.998;5.864;2024-03-06T15:05:02;101753.31;;;9.70;63.04
48204;BME280;33994;50.998;5.864;2024-03-06T15:08:06;101748.09;;;9.73;62.77
48204;BME280;33994;50.998;5.864;2024-03-06T15:11:09;101752.44;;;9.76;62.53
48204;BME280;33994;50.998;5.864;2024-03-06T15:14:12;101748.13;;;9.76;62.49
48204;BME280;33994;50.998;5.864;2024-03-06T15:17:16;101746.34;;;9.78;62.91
48204;BME280;33994;50.998;5.864;2024-03-06T15:20:19;101745.47;;;9.79;63.38
48204;BME280;33994;50.998;5.864;2024-03-06T15:23:23;101755.94;;;9.79;63.32
48204;BME280;33994;50.998;5.864;2024-03-06T15:26:27;101759.44;;;9.81;63.37
48204;BME280;33994;50.998;5.864;2024-03-06T15:29:30;101761.19;;;9.81;63.58
48204;BME280;33994;50.998;5.864;2024-03-06T15:32:33;101750.72;;;9.81;63.46
48204;BME280;33994;50.998;5.864;2024-03-06T15:35:36;101748.09;;;9.79;63.34
48204;BME280;33994;50.998;5.864;2024-03-06T15:38:41;101759.44;;;9.81;63.11
48204;BME280;33994;50.998;5.864;2024-03-06T15:41:44;101760.31;;;9.82;63.27
48204;BME280;33994;50.998;5.864;2024-03-06T15:44:47;101759.44;;;9.81;62.74
48204;BME280;33994;50.998;5.864;2024-03-06T15:47:51;101764.66;;;9.81;62.50
48204;BME280;33994;50.998;5.864;2024-03-06T15:50:54;101762.03;;;9.78;61.85
48204;BME280;33994;50.998;5.864;2024-03-06T15:53:59;101773.38;;;9.77;61.44
48204;BME280;33994;50.998;5.864;2024-03-06T15:57:03;101762.88;;;9.76;61.37
48204;BME280;33994;50.998;5.864;2024-03-06T16:00:07;101761.16;;;9.74;61.27
48204;BME280;33994;50.998;5.864;2024-03-06T16:03:11;101771.59;;;9.73;61.66
48204;BME280;33994;50.998;5.864;2024-03-06T16:06:14;101769.00;;;9.73;61.92
48204;BME280;33994;50.998;5.864;2024-03-06T16:09:19;101768.13;;;9.74;62.01
48204;BME280;33994;50.998;5.864;2024-03-06T16:12:22;101771.59;;;9.74;61.77